sensor_id;sensor_type;location;lat;lon;timestamp;P1;durP1;ratioP1;P2;durP2;ratioP2
47617;SDS011;33336;36.728;-4.414;2023-04-03T00:01:54;11.05;;;2.65;;
47617;SDS011;33336;36.728;-4.414;2023-04-03T00:06:58;10.02;;;2.28;;
47617;SDS011;33336;36.728;-4.414;2023-04-03T00:12:02;12.13;;;2.88;;
47617;SDS011;33336;36.728;-4.414;2023-04-03T00:17:06;10.10;;;3.10;;
47617;SDS011;33336;36.728;-4.414;2023-04-03T00:22:08;18.50;;;3.90;;
47617;SDS011;33336;36.728;-4.414;2023-04-03T00:27:13;17.27;;;3.50;;
47617;SDS011;33336;36.728;-4.414;2023-04-03T00:32:16;12.77;;;3.05;;
47617;SDS011;33336;36.728;-4.414;2023-04-03T00:37:20;16.83;;;2.92;;
47617;SDS011;33336;36.728;-4.414;2023-04-03T00:42:24;16.98;;;4.35;;
47617;SDS011;33336;36.728;-4.414;2023-04-03T00:47:28;13.38;;;3.15;;
47617;SDS011;33336;36.728;-4.414;2023-04-03T00:52:32;15.05;;;3.25;;
47617;SDS011;33336;36.728;-4.414;2023-04-03T00:57:37;11.38;;;2.28;;
47617;SDS011;33336;36.728;-4.414;2023-04-03T01:02:40;16.00;;;3.10;;
47617;SDS011;33336;36.728;-4.414;2023-04-03T01:07:44;15.35;;;3.25;;
47617;SDS011;33336;36.728;-4.414;2023-04-03T01:12:49;11.63;;;2.63;;
47617;SDS011;33336;36.728;-4.414;2023-04-03T01:17:53;9.27;;;2.20;;
47617;SDS011;33336;36.728;-4.414;2023-04-03T01:22:59;8.40;;;2.30;;
47617;SDS011;33336;36.728;-4.414;2023-04-03T01:28:15;9.98;;;2.42;;
47617;SDS011;33336;36.728;-4.414;2023-04-03T01:33:20;19.25;;;3.70;;
47617;SDS011;33336;36.728;-4.414;2023-04-03T01:38:24;11.95;;;2.55;;
47617;SDS011;33336;36.728;-4.414;2023-04-03T01:43:27;12.13;;;2.63;;
47617;SDS011;33336;36.728;-4.414;2023-04-03T01:48:32;11.57;;;2.60;;
47617;SDS011;33336;36.728;-4.414;2023-04-03T01:53:35;10.43;;;2.13;;
47617;SDS011;33336;36.728;-4.414;2023-04-03T01:58:39;7.70;;;2.05;;
47617;SDS011;33336;36.728;-4.414;2023-04-03T02:03:43;9.20;;;2.00;;
47617;SDS011;33336;36.728;-4.414;2023-04-03T02:08:47;12.18;;;2.40;;
47617;SDS011;33336;36.728;-4.414;2023-04-03T02:13:49;9.10;;;1.73;;
47617;SDS011;33336;36.728;-4.414;2023-04-03T02:18:54;10.25;;;2.08;;
47617;SDS011;33336;36.728;-4.414;2023-04-03T02:23:57;12.35;;;2.03;;
47617;SDS011;33336;36.728;-4.414;2023-04-03T02:29:01;4.47;;;1.27;;
47617;SDS011;33336;36.728;-4.414;2023-04-03T02:34:05;6.32;;;1.90;;
47617;SDS011;33336;36.728;-4.414;2023-04-03T02:39:09;10.40;;;2.03;;
47617;SDS011;33336;36.728;-4.414;2023-04-03T02:44:12;9.63;;;2.00;;
47617;SDS011;33336;36.728;-4.414;2023-04-03T02:49:17;11.77;;;2.35;;
47617;SDS011;33336;36.728;-4.414;2023-04-03T02:54:20;10.45;;;2.10;;
47617;SDS011;33336;36.728;-4.414;2023-04-03T02:59:25;9.02;;;2.10;;
47617;SDS011;33336;36.728;-4.414;2023-04-03T03:04:29;7.13;;;1.70;;
47617;SDS011;33336;36.728;-4.414;2023-04-03T03:09:33;7.97;;;1.88;;
47617;SDS011;33336;36.728;-4.414;2023-04-03T03:14:35;8.38;;;1.90;;
47617;SDS011;33336;36.728;-4.414;2023-04-03T03:19:40;10.18;;;1.70;;
47617;SDS011;33336;36.728;-4.414;2023-04-03T03:24:43;9.82;;;1.65;;
47617;SDS011;33336;36.728;-4.414;2023-04-03T03:29:47;8.05;;;2.05;;
47617;SDS011;33336;36.728;-4.414;2023-04-03T03:34:51;10.40;;;1.77;;
47617;SDS011;33336;36.728;-4.414;2023-04-03T03:39:53;8.23;;;2.08;;
47617;SDS011;33336;36.728;-4.414;2023-04-03T03:44:56;8.38;;;1.83;;
47617;SDS011;33336;36.728;-4.414;2023-04-03T03:50:01;8.27;;;1.92;;
47617;SDS011;33336;36.728;-4.414;2023-04-03T03:55:04;8.15;;;2.03;;
47617;SDS011;33336;36.728;-4.414;2023-04-03T04:00:09;11.00;;;2.17;;
47617;SDS011;33336;36.728;-4.414;2023-04-03T04:05:14;7.20;;;1.38;;
47617;SDS011;33336;36.728;-4.414;2023-04-03T04:10:17;7.63;;;2.00;;
47617;SDS011;33336;36.728;-4.414;2023-04-03T04:15:20;7.95;;;2.03;;
47617;SDS011;33336;36.728;-4.414;2023-04-03T04:20:25;6.63;;;2.10;;
47617;SDS011;33336;36.728;-4.414;2023-04-03T04:25:28;4.68;;;1.90;;
47617;SDS011;33336;36.728;-4.414;2023-04-03T04:30:30;5.35;;;1.38;;
47617;SDS011;33336;36.728;-4.414;2023-04-03T04:35:35;8.05;;;2.60;;
47617;SDS011;33336;36.728;-4.414;2023-04-03T04:40:39;8.77;;;2.00;;
47617;SDS011;33336;36.728;-4.414;2023-04-03T04:45:42;6.88;;;2.13;;
47617;SDS011;33336;36.728;-4.414;2023-04-03T04:50:47;7.72;;;1.90;;
47617;SDS011;33336;36.728;-4.414;2023-04-03T04:55:50;10.65;;;2.00;;
47617;SDS011;33336;36.728;-4.414;2023-04-03T05:00:58;9.73;;;2.08;;
47617;SDS011;33336;36.728;-4.414;2023-04-03T05:06:03;8.30;;;2.13;;
47617;SDS011;33336;36.728;-4.414;2023-04-03T05:11:06;5.40;;;1.63;;
47617;SDS011;33336;36.728;-4.414;2023-04-03T05:16:09;8.05;;;2.05;;
47617;SDS011;33336;36.728;-4.414;2023-04-03T05:21:15;7.68;;;2.58;;
47617;SDS011;33336;36.728;-4.414;2023-04-03T05:26:18;9.43;;;2.13;;
47617;SDS011;33336;36.728;-4.414;2023-04-03T05:31:21;7.95;;;1.90;;
47617;SDS011;33336;36.728;-4.414;2023-04-03T05:36:26;10.13;;;2.42;;
47617;SDS011;33336;36.728;-4.414;2023-04-03T05:41:29;12.50;;;2.45;;
47617;SDS011;33336;36.728;-4.414;2023-04-03T05:46:34;9.68;;;1.83;;
47617;SDS011;33336;36.728;-4.414;2023-04-03T05:51:39;9.93;;;2.53;;
47617;SDS011;33336;36.728;-4.414;2023-04-03T05:56:42;7.70;;;2.33;;
47617;SDS011;33336;36.728;-4.414;2023-04-03T06:01:46;8.88;;;2.65;;
47617;SDS011;33336;36.728;-4.414;2023-04-03T06:06:51;9.05;;;2.30;;
47617;SDS011;33336;36.728;-4.414;2023-04-03T06:11:57;15.32;;;2.92;;
47617;SDS011;33336;36.728;-4.414;2023-04-03T06:17:00;7.22;;;2.72;;
47617;SDS011;33336;36.728;-4.414;2023-04-03T06:22:05;12.27;;;3.40;;
47617;SDS011;33336;36.728;-4.414;2023-04-03T06:27:08;13.25;;;2.75;;
47617;SDS011;33336;36.728;-4.414;2023-04-03T06:32:13;14.07;;;2.58;;
47617;SDS011;33336;36.728;-4.414;2023-04-03T06:37:22;11.73;;;2.33;;
47617;SDS011;33336;36.728;-4.414;2023-04-03T06:42:26;11.05;;;2.58;;
47617;SDS011;33336;36.728;-4.414;2023-04-03T06:47:29;10.13;;;2.55;;
47617;SDS011;33336;36.728;-4.414;2023-04-03T06:52:34;19.52;;;2.67;;
47617;SDS011;33336;36.728;-4.414;2023-04-03T06:57:37;7.70;;;2.10;;
47617;SDS011;33336;36.728;-4.414;2023-04-03T07:02:40;8.02;;;2.17;;
47617;SDS011;33336;36.728;-4.414;2023-04-03T07:07:45;9.80;;;2.83;;
47617;SDS011;33336;36.728;-4.414;2023-04-03T07:12:48;9.68;;;2.83;;
47617;SDS011;33336;36.728;-4.414;2023-04-03T07:17:51;10.18;;;2.20;;
47617;SDS011;33336;36.728;-4.414;2023-04-03T07:22:56;10.70;;;3.42;;
47617;SDS011;33336;36.728;-4.414;2023-04-03T07:27:59;19.85;;;3.58;;
47617;SDS011;33336;36.728;-4.414;2023-04-03T07:33:01;12.80;;;2.05;;
47617;SDS011;33336;36.728;-4.414;2023-04-03T07:38:06;12.88;;;2.50;;
47617;SDS011;33336;36.728;-4.414;2023-04-03T07:43:09;6.10;;;1.50;;
47617;SDS011;33336;36.728;-4.414;2023-04-03T07:48:12;14.30;;;1.95;;
47617;SDS011;33336;36.728;-4.414;2023-04-03T07:53:18;14.45;;;3.75;;
47617;SDS011;33336;36.728;-4.414;2023-04-03T07:58:21;8.05;;;2.10;;
47617;SDS011;33336;36.728;-4.414;2023-04-03T08:03:24;9.60;;;2.00;;
47617;SDS011;33336;36.728;-4.414;2023-04-03T08:08:29;8.93;;;2.38;;
47617;SDS011;33336;36.728;-4.414;2023-04-03T08:13:34;8.52;;;1.70;;
47617;SDS011;33336;36.728;-4.414;2023-04-03T08:18:36;6.03;;;1.75;;
47617;SDS011;33336;36.728;-4.414;2023-04-03T08:23:43;3.75;;;1.35;;
47617;SDS011;33336;36.728;-4.414;2023-04-03T08:28:46;16.80;;;2.85;;
47617;SDS011;33336;36.728;-4.414;2023-04-03T08:33:48;4.82;;;1.23;;
47617;SDS011;33336;36.728;-4.414;2023-04-03T08:38:53;5.82;;;2.15;;
47617;SDS011;33336;36.728;-4.414;2023-04-03T08:43:58;11.55;;;2.60;;
47617;SDS011;33336;36.728;-4.414;2023-04-03T08:49:11;13.20;;;3.63;;
47617;SDS011;33336;36.728;-4.414;2023-04-03T08:54:23;10.65;;;2.97;;
47617;SDS011;33336;36.728;-4.414;2023-04-03T08:59:32;13.80;;;3.20;;
47617;SDS011;33336;36.728;-4.414;2023-04-03T09:04:37;6.45;;;2.33;;
47617;SDS011;33336;36.728;-4.414;2023-04-03T09:09:42;14.32;;;2.55;;
47617;SDS011;33336;36.728;-4.414;2023-04-03T09:14:46;9.20;;;2.90;;
47617;SDS011;33336;36.728;-4.414;2023-04-03T09:20:02;11.13;;;2.30;;
47617;SDS011;33336;36.728;-4.414;2023-04-03T09:25:18;10.07;;;2.38;;
47617;SDS011;33336;36.728;-4.414;2023-04-03T09:30:24;12.87;;;2.67;;
47617;SDS011;33336;36.728;-4.414;2023-04-03T09:35:28;10.27;;;2.75;;
47617;SDS011;33336;36.728;-4.414;2023-04-03T09:40:35;12.68;;;2.97;;
47617;SDS011;33336;36.728;-4.414;2023-04-03T09:45:39;16.07;;;3.87;;
47617;SDS011;33336;36.728;-4.414;2023-04-03T09:50:52;21.80;;;4.13;;
47617;SDS011;33336;36.728;-4.414;2023-04-03T09:56:05;14.95;;;3.42;;
47617;SDS011;33336;36.728;-4.414;2023-04-03T10:01:23;14.02;;;2.80;;
47617;SDS011;33336;36.728;-4.414;2023-04-03T10:06:29;19.27;;;3.93;;
47617;SDS011;33336;36.728;-4.414;2023-04-03T10:11:38;9.57;;;2.47;;
47617;SDS011;33336;36.728;-4.414;2023-04-03T10:17:02;10.82;;;2.72;;
47617;SDS011;33336;36.728;-4.414;2023-04-03T10:22:21;12.13;;;3.17;;
47617;SDS011;33336;36.728;-4.414;2023-04-03T10:27:37;12.32;;;2.20;;
47617;SDS011;33336;36.728;-4.414;2023-04-03T10:32:50;8.68;;;1.50;;
47617;SDS011;33336;36.728;-4.414;2023-04-03T10:38:01;6.00;;;2.28;;
47617;SDS011;33336;36.728;-4.414;2023-04-03T10:43:14;7.95;;;1.95;;
47617;SDS011;33336;36.728;-4.414;2023-04-03T10:48:34;6.07;;;1.23;;
47617;SDS011;33336;36.728;-4.414;2023-04-03T10:54:00;8.35;;;1.52;;
47617;SDS011;33336;36.728;-4.414;2023-04-03T10:59:13;5.55;;;1.25;;
47617;SDS011;33336;36.728;-4.414;2023-04-03T11:04:21;2.95;;;1.42;;
47617;SDS011;33336;36.728;-4.414;2023-04-03T11:09:30;3.92;;;1.33;;
47617;SDS011;33336;36.728;-4.414;2023-04-03T11:14:40;3.60;;;1.20;;
47617;SDS011;33336;36.728;-4.414;2023-04-03T11:19:44;5.68;;;1.73;;
47617;SDS011;33336;36.728;-4.414;2023-04-03T11:24:55;4.38;;;1.40;;
47617;SDS011;33336;36.728;-4.414;2023-04-03T11:30:07;6.75;;;1.50;;
47617;SDS011;33336;36.728;-4.414;2023-04-03T11:35:19;7.18;;;1.40;;
47617;SDS011;33336;36.728;-4.414;2023-04-03T11:40:24;3.88;;;1.10;;
47617;SDS011;33336;36.728;-4.414;2023-04-03T11:45:40;6.10;;;1.60;;
47617;SDS011;33336;36.728;-4.414;2023-04-03T11:50:52;4.25;;;1.42;;
47617;SDS011;33336;36.728;-4.414;2023-04-03T11:55:57;3.30;;;0.82;;
47617;SDS011;33336;36.728;-4.414;2023-04-03T12:06:58;4.30;;;1.05;;
47617;SDS011;33336;36.728;-4.414;2023-04-03T12:17:41;2.15;;;0.85;;
47617;SDS011;33336;36.728;-4.414;2023-04-03T12:22:53;6.85;;;1.48;;
47617;SDS011;33336;36.728;-4.414;2023-04-03T12:28:10;2.05;;;0.70;;
47617;SDS011;33336;36.728;-4.414;2023-04-03T12:33:18;8.63;;;2.00;;
47617;SDS011;33336;36.728;-4.414;2023-04-03T12:38:45;5.28;;;1.40;;
47617;SDS011;33336;36.728;-4.414;2023-04-03T12:49:41;1.98;;;1.10;;
47617;SDS011;33336;36.728;-4.414;2023-04-03T12:54:45;3.28;;;0.88;;
47617;SDS011;33336;36.728;-4.414;2023-04-03T12:59:49;1.52;;;0.80;;
47617;SDS011;33336;36.728;-4.414;2023-04-03T13:04:55;5.80;;;0.77;;
47617;SDS011;33336;36.728;-4.414;2023-04-03T13:10:03;0.75;;;0.30;;
47617;SDS011;33336;36.728;-4.414;2023-04-03T13:15:19;2.90;;;0.33;;
47617;SDS011;33336;36.728;-4.414;2023-04-03T13:20:27;2.60;;;0.57;;
47617;SDS011;33336;36.728;-4.414;2023-04-03T13:25:35;0.90;;;0.60;;
47617;SDS011;33336;36.728;-4.414;2023-04-03T13:30:53;2.45;;;0.82;;
47617;SDS011;33336;36.728;-4.414;2023-04-03T13:36:02;1.92;;;0.70;;
47617;SDS011;33336;36.728;-4.414;2023-04-03T13:41:21;1.50;;;0.43;;
47617;SDS011;33336;36.728;-4.414;2023-04-03T13:46:27;3.15;;;0.60;;
47617;SDS011;33336;36.728;-4.414;2023-04-03T13:51:32;1.30;;;0.65;;
47617;SDS011;33336;36.728;-4.414;2023-04-03T13:56:40;1.17;;;0.45;;
47617;SDS011;33336;36.728;-4.414;2023-04-03T14:01:45;5.20;;;1.65;;
47617;SDS011;33336;36.728;-4.414;2023-04-03T14:06:52;11.73;;;3.00;;
47617;SDS011;33336;36.728;-4.414;2023-04-03T14:11:57;14.55;;;3.63;;
47617;SDS011;33336;36.728;-4.414;2023-04-03T14:17:10;10.05;;;2.40;;
47617;SDS011;33336;36.728;-4.414;2023-04-03T14:22:20;8.45;;;2.45;;
47617;SDS011;33336;36.728;-4.414;2023-04-03T14:27:25;8.23;;;2.38;;
47617;SDS011;33336;36.728;-4.414;2023-04-03T14:32:29;8.10;;;2.65;;
47617;SDS011;33336;36.728;-4.414;2023-04-03T14:37:33;5.07;;;2.00;;
47617;SDS011;33336;36.728;-4.414;2023-04-03T14:42:37;8.95;;;3.10;;
47617;SDS011;33336;36.728;-4.414;2023-04-03T14:47:42;6.00;;;2.03;;
47617;SDS011;33336;36.728;-4.414;2023-04-03T14:52:52;6.40;;;2.05;;
47617;SDS011;33336;36.728;-4.414;2023-04-03T14:57:59;8.18;;;1.75;;
47617;SDS011;33336;36.728;-4.414;2023-04-03T15:03:02;4.97;;;1.88;;
47617;SDS011;33336;36.728;-4.414;2023-04-03T15:08:09;6.10;;;1.50;;
47617;SDS011;33336;36.728;-4.414;2023-04-03T15:13:21;5.30;;;2.17;;
47617;SDS011;33336;36.728;-4.414;2023-04-03T15:18:25;6.25;;;1.20;;
47617;SDS011;33336;36.728;-4.414;2023-04-03T15:23:34;5.03;;;1.75;;
47617;SDS011;33336;36.728;-4.414;2023-04-03T15:28:38;3.55;;;1.60;;
47617;SDS011;33336;36.728;-4.414;2023-04-03T15:33:42;4.25;;;1.27;;
47617;SDS011;33336;36.728;-4.414;2023-04-03T15:38:46;3.70;;;1.35;;
47617;SDS011;33336;36.728;-4.414;2023-04-03T15:43:49;3.22;;;1.20;;
47617;SDS011;33336;36.728;-4.414;2023-04-03T15:48:52;3.15;;;0.75;;
47617;SDS011;33336;36.728;-4.414;2023-04-03T15:53:57;4.75;;;1.00;;
47617;SDS011;33336;36.728;-4.414;2023-04-03T15:58:59;3.65;;;0.95;;
47617;SDS011;33336;36.728;-4.414;2023-04-03T16:04:03;4.90;;;0.90;;
47617;SDS011;33336;36.728;-4.414;2023-04-03T16:09:08;3.38;;;1.00;;
47617;SDS011;33336;36.728;-4.414;2023-04-03T16:19:14;6.93;;;1.10;;
47617;SDS011;33336;36.728;-4.414;2023-04-03T16:24:20;4.22;;;1.58;;
47617;SDS011;33336;36.728;-4.414;2023-04-03T16:29:23;3.97;;;0.98;;
47617;SDS011;33336;36.728;-4.414;2023-04-03T16:34:26;0.95;;;0.60;;
47617;SDS011;33336;36.728;-4.414;2023-04-03T16:39:32;2.60;;;0.95;;
47617;SDS011;33336;36.728;-4.414;2023-04-03T16:49:37;3.25;;;1.05;;
47617;SDS011;33336;36.728;-4.414;2023-04-03T16:54:43;4.22;;;1.05;;
47617;SDS011;33336;36.728;-4.414;2023-04-03T16:59:45;2.28;;;0.85;;
47617;SDS011;33336;36.728;-4.414;2023-04-03T17:04:49;4.20;;;1.17;;
47617;SDS011;33336;36.728;-4.414;2023-04-03T17:09:54;5.68;;;1.25;;
47617;SDS011;33336;36.728;-4.414;2023-04-03T17:14:58;3.75;;;1.08;;
47617;SDS011;33336;36.728;-4.414;2023-04-03T17:20:01;1.65;;;0.85;;
47617;SDS011;33336;36.728;-4.414;2023-04-03T17:25:07;2.70;;;0.90;;
47617;SDS011;33336;36.728;-4.414;2023-04-03T17:30:11;3.22;;;0.82;;
47617;SDS011;33336;36.728;-4.414;2023-04-03T17:35:14;3.47;;;1.02;;
47617;SDS011;33336;36.728;-4.414;2023-04-03T17:40:19;4.82;;;1.08;;
47617;SDS011;33336;36.728;-4.414;2023-04-03T17:50:25;5.13;;;2.25;;
47617;SDS011;33336;36.728;-4.414;2023-04-03T17:55:30;3.00;;;0.90;;
47617;SDS011;33336;36.728;-4.414;2023-04-03T18:05:35;4.50;;;2.13;;
47617;SDS011;33336;36.728;-4.414;2023-04-03T18:10:40;5.68;;;1.60;;
47617;SDS011;33336;36.728;-4.414;2023-04-03T18:15:43;6.25;;;1.70;;
47617;SDS011;33336;36.728;-4.414;2023-04-03T18:20:46;8.40;;;2.13;;
47617;SDS011;33336;36.728;-4.414;2023-04-03T18:25:51;7.30;;;2.13;;
47617;SDS011;33336;36.728;-4.414;2023-04-03T18:30:54;9.90;;;2.15;;
47617;SDS011;33336;36.728;-4.414;2023-04-03T18:35:57;6.57;;;2.15;;
47617;SDS011;33336;36.728;-4.414;2023-04-03T18:41:01;8.65;;;2.13;;
47617;SDS011;33336;36.728;-4.414;2023-04-03T18:46:07;7.30;;;2.33;;
47617;SDS011;33336;36.728;-4.414;2023-04-03T18:51:10;4.53;;;1.80;;
47617;SDS011;33336;36.728;-4.414;2023-04-03T18:56:16;7.13;;;2.00;;
47617;SDS011;33336;36.728;-4.414;2023-04-03T19:01:18;5.43;;;1.98;;
47617;SDS011;33336;36.728;-4.414;2023-04-03T19:06:22;7.03;;;1.90;;
47617;SDS011;33336;36.728;-4.414;2023-04-03T19:11:26;7.72;;;2.25;;
47617;SDS011;33336;36.728;-4.414;2023-04-03T19:16:31;5.75;;;1.88;;
47617;SDS011;33336;36.728;-4.414;2023-04-03T19:21:34;8.48;;;2.30;;
47617;SDS011;33336;36.728;-4.414;2023-04-03T19:26:42;7.60;;;2.25;;
47617;SDS011;33336;36.728;-4.414;2023-04-03T19:31:45;9.13;;;2.03;;
47617;SDS011;33336;36.728;-4.414;2023-04-03T19:36:48;6.28;;;2.25;;
47617;SDS011;33336;36.728;-4.414;2023-04-03T19:41:53;5.60;;;2.08;;
47617;SDS011;33336;36.728;-4.414;2023-04-03T19:46:56;9.93;;;1.92;;
47617;SDS011;33336;36.728;-4.414;2023-04-03T19:51:59;9.32;;;2.17;;
47617;SDS011;33336;36.728;-4.414;2023-04-03T19:57:04;6.30;;;1.70;;
47617;SDS011;33336;36.728;-4.414;2023-04-03T20:02:08;7.53;;;2.75;;
47617;SDS011;33336;36.728;-4.414;2023-04-03T20:07:11;11.07;;;2.85;;
47617;SDS011;33336;36.728;-4.414;2023-04-03T20:12:15;11.75;;;2.47;;
47617;SDS011;33336;36.728;-4.414;2023-04-03T20:17:19;7.78;;;1.88;;
47617;SDS011;33336;36.728;-4.414;2023-04-03T20:22:22;5.43;;;2.20;;
47617;SDS011;33336;36.728;-4.414;2023-04-03T20:27:26;8.35;;;2.22;;
47617;SDS011;33336;36.728;-4.414;2023-04-03T20:32:30;6.40;;;2.65;;
47617;SDS011;33336;36.728;-4.414;2023-04-03T20:37:33;12.52;;;2.72;;
47617;SDS011;33336;36.728;-4.414;2023-04-03T20:42:37;6.30;;;1.95;;
47617;SDS011;33336;36.728;-4.414;2023-04-03T20:47:41;11.27;;;2.70;;
47617;SDS011;33336;36.728;-4.414;2023-04-03T20:52:44;7.05;;;2.30;;
47617;SDS011;33336;36.728;-4.414;2023-04-03T20:57:48;8.65;;;2.03;;
47617;SDS011;33336;36.728;-4.414;2023-04-03T21:02:52;7.07;;;1.88;;
47617;SDS011;33336;36.728;-4.414;2023-04-03T21:19:21;3.28;;;1.40;;
47617;SDS011;33336;36.728;-4.414;2023-04-03T21:24:24;6.97;;;3.40;;
47617;SDS011;33336;36.728;-4.414;2023-04-03T21:29:27;9.88;;;3.00;;
47617;SDS011;33336;36.728;-4.414;2023-04-03T21:34:32;6.68;;;2.75;;
47617;SDS011;33336;36.728;-4.414;2023-04-03T21:39:35;11.40;;;1.95;;
47617;SDS011;33336;36.728;-4.414;2023-04-03T21:44:38;5.57;;;1.55;;
47617;SDS011;33336;36.728;-4.414;2023-04-03T21:49:42;5.05;;;1.27;;
47617;SDS011;33336;36.728;-4.414;2023-04-03T21:54:47;6.90;;;1.50;;
47617;SDS011;33336;36.728;-4.414;2023-04-03T21:59:50;2.95;;;1.33;;
47617;SDS011;33336;36.728;-4.414;2023-04-03T22:04:54;4.93;;;1.42;;
47617;SDS011;33336;36.728;-4.414;2023-04-03T22:09:58;7.22;;;1.55;;
47617;SDS011;33336;36.728;-4.414;2023-04-03T22:15:01;7.45;;;2.00;;
47617;SDS011;33336;36.728;-4.414;2023-04-03T22:20:07;7.03;;;1.27;;
47617;SDS011;33336;36.728;-4.414;2023-04-03T22:25:10;8.68;;;2.00;;
47617;SDS011;33336;36.728;-4.414;2023-04-03T22:30:14;2.95;;;1.45;;
47617;SDS011;33336;36.728;-4.414;2023-04-03T22:35:18;4.13;;;1.80;;
47617;SDS011;33336;36.728;-4.414;2023-04-03T22:40:24;6.63;;;1.88;;
47617;SDS011;33336;36.728;-4.414;2023-04-03T22:45:27;5.07;;;1.92;;
47617;SDS011;33336;36.728;-4.414;2023-04-03T22:50:31;3.85;;;1.75;;
47617;SDS011;33336;36.728;-4.414;2023-04-03T22:55:36;3.00;;;1.53;;
47617;SDS011;33336;36.728;-4.414;2023-04-03T23:00:40;6.10;;;1.80;;
47617;SDS011;33336;36.728;-4.414;2023-04-03T23:05:44;4.90;;;1.40;;
47617;SDS011;33336;36.728;-4.414;2023-04-03T23:10:48;5.72;;;1.55;;
47617;SDS011;33336;36.728;-4.414;2023-04-03T23:15:54;5.97;;;1.70;;
47617;SDS011;33336;36.728;-4.414;2023-04-03T23:21:00;8.38;;;1.40;;
47617;SDS011;33336;36.728;-4.414;2023-04-03T23:26:04;6.90;;;1.92;;
47617;SDS011;33336;36.728;-4.414;2023-04-03T23:31:09;6.70;;;1.25;;
47617;SDS011;33336;36.728;-4.414;2023-04-03T23:36:13;4.35;;;1.50;;
47617;SDS011;33336;36.728;-4.414;2023-04-03T23:41:17;3.20;;;0.93;;
47617;SDS011;33336;36.728;-4.414;2023-04-03T23:46:21;5.82;;;1.77;;
47617;SDS011;33336;36.728;-4.414;2023-04-03T23:51:25;7.25;;;1.60;;
47617;SDS011;33336;36.728;-4.414;2023-04-03T23:56:28;7.88;;;1.70;;
